Time;durP1;ratioP1;P1;durP2;ratioP2;P2;SDS_P1;SDS_P2;PMS_P1;PMS_P2;Temp;Humidity;BMP_temperature;BMP_pressure;BME280_temperature;BME280_humidity;BME280_pressure;Samples;Min_cycle;Max_cycle;Signal;HPM_P1;HPM_P2
2022/07/15 00:00:42;;;;;;;0.40;0.30;;;21.90;86.80;;;;;;5010798;28;20887;-74
2022/07/15 00:03:08;;;;;;;0.40;0.20;;;21.80;86.30;;;;;;5029668;28;20737;-75
2022/07/15 00:05:33;;;;;;;0.40;0.30;;;21.80;85.30;;;;;;5029273;28;20414;-74
2022/07/15 00:08:00;;;;;;;0.90;0.90;;;22.00;85.90;;;;;;5028549;28;20395;-75
2022/07/15 00:10:27;;;;;;;0.40;0.30;;;22.00;88.00;;;;;;5029326;28;20538;-74
2022/07/15 00:12:55;;;;;;;0.40;0.30;;;22.10;84.50;;;;;;5017494;28;20389;-74
2022/07/15 00:15:24;;;;;;;0.40;0.30;;;22.20;85.00;;;;;;5009686;28;20388;-74
2022/07/15 00:17:50;;;;;;;0.40;0.20;;;21.90;89.90;;;;;;5008443;28;20378;-75
2022/07/15 00:20:16;;;;;;;0.40;0.30;;;21.70;90.20;;;;;;5009644;28;20459;-74
2022/07/15 00:22:43;;;;;;;0.40;0.30;;;21.80;90.30;;;;;;5008611;28;20381;-74
2022/07/15 00:25:10;;;;;;;0.60;0.60;;;21.70;90.60;;;;;;5009139;28;20875;-74
2022/07/15 00:27:36;;;;;;;0.60;0.50;;;21.40;92.20;;;;;;5008875;28;20717;-74
2022/07/15 00:30:03;;;;;;;0.70;0.70;;;21.30;92.20;;;;;;5008441;28;20459;-74
2022/07/15 00:32:29;;;;;;;0.40;0.30;;;21.30;92.80;;;;;;5009081;28;20400;-75
2022/07/15 00:34:54;;;;;;;0.40;0.30;;;21.20;94.10;;;;;;5008451;28;20868;-74
2022/07/15 00:37:20;;;;;;;0.40;0.30;;;21.10;94.90;;;;;;5009397;28;20381;-74
2022/07/15 00:39:46;;;;;;;0.50;0.30;;;21.00;96.60;;;;;;5008496;28;20733;-74
2022/07/15 00:42:43;;;;;;;0.50;0.50;;;20.90;96.90;;;;;;5008701;28;20936;-74
2022/07/15 00:45:01;;;;;;;0.40;0.20;;;21.00;97.10;;;;;;5007596;28;20989;-74
2022/07/15 00:47:27;;;;;;;0.40;0.20;;;20.80;98.60;;;;;;5008731;28;20400;-74
2022/07/15 00:49:53;;;;;;;0.40;0.30;;;20.70;98.20;;;;;;5008518;28;20389;-74
2022/07/15 00:52:21;;;;;;;0.60;0.50;;;20.70;99.70;;;;;;5009242;28;20389;-74
2022/07/15 00:54:50;;;;;;;0.40;0.30;;;20.70;99.90;;;;;;5008196;28;20416;-74
2022/07/15 00:57:17;;;;;;;0.40;0.20;;;20.50;99.90;;;;;;4990457;28;21134;-74
2022/07/15 00:59:45;;;;;;;0.40;0.30;;;20.50;99.90;;;;;;5008058;28;20381;-74
2022/07/15 01:02:12;;;;;;;0.40;0.20;;;20.40;99.90;;;;;;5008407;28;20404;-74
2022/07/15 01:04:39;;;;;;;0.40;0.30;;;20.40;99.90;;;;;;5007594;28;20381;-74
2022/07/15 01:07:04;;;;;;;0.40;0.20;;;20.30;99.90;;;;;;5008133;28;20384;-74
2022/07/15 01:09:30;;;;;;;0.50;0.37;;;20.30;99.90;;;;;;5008543;28;20397;-74
2022/07/15 01:11:56;;;;;;;0.40;0.30;;;20.20;99.90;;;;;;5010864;28;20403;-74
2022/07/15 01:14:22;;;;;;;0.40;0.20;;;20.10;99.90;;;;;;5028326;28;20407;-74
2022/07/15 01:16:47;;;;;;;0.40;0.20;;;20.20;99.90;;;;;;5027448;28;20860;-74
2022/07/15 01:19:13;;;;;;;0.50;0.50;;;20.10;99.90;;;;;;5027860;28;20856;-74
2022/07/15 01:21:39;;;;;;;0.40;0.30;;;20.10;99.90;;;;;;5028399;28;20395;-74
2022/07/15 01:24:05;;;;;;;0.40;0.20;;;20.10;99.90;;;;;;5009734;28;20391;-74
2022/07/15 01:26:30;;;;;;;0.50;0.30;;;20.00;99.90;;;;;;5028020;28;20427;-74
2022/07/15 01:28:56;;;;;;;0.40;0.30;;;19.90;99.90;;;;;;5026778;28;20387;-74
2022/07/15 01:31:22;;;;;;;2.90;1.40;;;19.80;99.90;;;;;;5028001;28;20389;-74
2022/07/15 01:33:47;;;;;;;0.63;0.40;;;19.70;99.90;;;;;;5026879;28;20457;-74
2022/07/15 01:36:13;;;;;;;0.40;0.30;;;19.80;99.90;;;;;;5027643;28;20387;-74
2022/07/15 01:38:39;;;;;;;0.40;0.20;;;19.70;99.90;;;;;;5028245;28;20394;-75
2022/07/15 01:41:04;;;;;;;0.80;0.80;;;19.70;99.90;;;;;;5026730;28;20399;-75
2022/07/15 01:43:30;;;;;;;0.40;0.30;;;19.80;99.90;;;;;;5027762;28;20419;-75
2022/07/15 01:45:56;;;;;;;1.20;1.20;;;19.90;99.90;;;;;;5026475;28;20502;-75
2022/07/15 01:51:06;;;;;;;0.40;0.20;;;20.00;99.90;;;;;;5026770;28;20429;-75
2022/07/15 01:53:33;;;;;;;0.40;0.20;;;20.10;99.90;;;;;;5027998;28;20496;-74
2022/07/15 01:55:58;;;;;;;0.40;0.20;;;20.10;99.90;;;;;;5026375;28;20437;-74
2022/07/15 01:58:24;;;;;;;0.40;0.27;;;20.20;99.90;;;;;;5009437;28;20422;-74
2022/07/15 02:00:50;;;;;;;0.40;0.30;;;20.30;98.90;;;;;;5026877;28;20390;-74
2022/07/15 02:03:16;;;;;;;0.40;0.30;;;20.50;96.60;;;;;;5027383;28;20481;-74
2022/07/15 02:05:42;;;;;;;0.40;0.20;;;20.40;96.20;;;;;;5009506;28;20472;-74
2022/07/15 02:08:08;;;;;;;0.80;0.80;;;20.40;97.10;;;;;;5009346;28;20560;-74
2022/07/15 02:10:39;;;;;;;0.40;0.30;;;20.50;95.30;;;;;;5027596;28;20466;-76
2022/07/15 02:13:10;;;;;;;0.40;0.30;;;20.40;95.40;;;;;;5013887;28;20567;-74
2022/07/15 02:15:37;;;;;;;0.40;0.30;;;20.50;96.90;;;;;;5009625;28;20388;-74
2022/07/15 02:18:03;;;;;;;0.40;0.20;;;20.50;96.10;;;;;;5010870;28;20399;-74
2022/07/15 02:20:30;;;;;;;0.90;0.70;;;20.40;95.70;;;;;;5011641;28;20377;-74
2022/07/15 02:22:58;;;;;;;0.40;0.30;;;20.30;95.10;;;;;;4993163;28;20436;-74
2022/07/15 02:25:30;;;;;;;0.80;0.70;;;20.50;92.80;;;;;;5011219;28;20726;-74
2022/07/15 02:27:57;;;;;;;0.40;0.30;;;20.40;94.50;;;;;;5011141;28;20412;-74
2022/07/15 02:30:32;;;;;;;0.50;0.40;;;20.20;95.20;;;;;;5011457;28;20385;-74
2022/07/15 02:32:59;;;;;;;0.40;0.20;;;20.10;95.60;;;;;;5010770;28;20419;-74
2022/07/15 02:35:25;;;;;;;0.40;0.30;;;20.10;94.60;;;;;;5011171;28;20416;-74
2022/07/15 02:37:51;;;;;;;0.40;0.30;;;20.10;94.40;;;;;;5011253;28;20396;-74
2022/07/15 02:40:17;;;;;;;0.40;0.40;;;20.20;94.90;;;;;;5011029;28;20385;-74
2022/07/15 02:42:56;;;;;;;0.40;0.22;;;20.20;93.50;;;;;;5011075;28;20391;-74
2022/07/15 02:45:26;;;;;;;0.40;0.30;;;20.30;93.90;;;;;;5011292;28;20416;-74
2022/07/15 02:47:52;;;;;;;0.40;0.20;;;20.30;93.10;;;;;;5010315;28;20381;-74
2022/07/15 02:50:19;;;;;;;0.40;0.30;;;20.20;92.50;;;;;;5011226;28;20407;-74
2022/07/15 02:52:45;;;;;;;0.40;0.30;;;20.60;88.40;;;;;;5011649;28;20373;-72
2022/07/15 02:55:12;;;;;;;0.40;0.20;;;20.80;81.40;;;;;;5010679;28;20507;-74
2022/07/15 02:57:38;;;;;;;0.40;0.20;;;21.00;82.60;;;;;;5010878;28;20417;-74
2022/07/15 03:00:07;;;;;;;0.40;0.30;;;20.90;83.50;;;;;;5010414;28;20460;-74
2022/07/15 03:02:33;;;;;;;0.40;0.30;;;20.90;81.80;;;;;;5011091;28;20381;-74
2022/07/15 03:05:00;;;;;;;0.40;0.40;;;20.80;83.70;;;;;;5010637;28;20906;-74
2022/07/15 03:07:26;;;;;;;0.40;0.30;;;20.70;83.70;;;;;;5011336;28;20477;-74
2022/07/15 03:09:51;;;;;;;0.40;0.30;;;20.50;82.50;;;;;;5010904;28;20471;-74
2022/07/15 03:12:17;;;;;;;0.40;0.20;;;20.50;83.60;;;;;;5017767;28;20473;-75
2022/07/15 03:14:43;;;;;;;0.43;0.22;;;20.40;86.00;;;;;;5030427;28;20399;-74
2022/07/15 03:17:08;;;;;;;0.40;0.20;;;20.40;86.50;;;;;;5030050;28;20383;-74
2022/07/15 03:19:34;;;;;;;0.40;0.30;;;20.20;85.30;;;;;;5030920;28;20387;-74
2022/07/15 03:22:00;;;;;;;0.40;0.30;;;20.20;87.20;;;;;;5029703;28;20419;-74
2022/07/15 03:24:26;;;;;;;0.40;0.30;;;20.30;85.60;;;;;;5030463;28;20449;-74
2022/07/15 03:26:51;;;;;;;0.40;0.30;;;20.20;86.90;;;;;;5028835;28;20486;-74
2022/07/15 03:29:17;;;;;;;0.40;0.40;;;20.20;86.80;;;;;;5030171;28;20882;-74
2022/07/15 03:31:43;;;;;;;2.80;0.80;;;20.10;85.60;;;;;;5030406;28;20867;-74
2022/07/15 03:34:10;;;;;;;0.40;0.30;;;20.10;87.10;;;;;;5029311;28;20395;-74
2022/07/15 03:36:37;;;;;;;0.40;0.30;;;20.00;86.50;;;;;;5029711;28;20395;-74
2022/07/15 03:39:04;;;;;;;0.50;0.40;;;19.90;87.10;;;;;;5029191;28;20440;-74
2022/07/15 03:41:29;;;;;;;0.40;0.20;;;19.80;87.80;;;;;;5030079;28;20383;-74
2022/07/15 03:43:55;;;;;;;0.40;0.20;;;19.80;87.50;;;;;;5029194;28;20440;-74
2022/07/15 03:46:21;;;;;;;0.40;0.20;;;19.70;89.30;;;;;;5029895;28;20411;-75
2022/07/15 03:48:47;;;;;;;0.40;0.20;;;19.60;88.80;;;;;;5029550;28;20469;-74
2022/07/15 03:51:13;;;;;;;0.40;0.20;;;19.60;90.30;;;;;;5029068;28;20383;-74
2022/07/15 03:53:39;;;;;;;0.40;0.30;;;19.50;90.30;;;;;;5030206;28;20387;-74
2022/07/15 03:56:04;;;;;;;0.40;0.40;;;19.40;90.30;;;;;;5029052;28;20759;-74
2022/07/15 03:58:30;;;;;;;1.00;0.90;;;19.40;91.20;;;;;;5029490;28;20517;-74
2022/07/15 04:00:56;;;;;;;0.40;0.20;;;19.40;92.20;;;;;;5028820;28;20393;-74
2022/07/15 04:03:22;;;;;;;0.40;0.40;;;19.40;91.00;;;;;;5029958;28;20433;-75
2022/07/15 04:05:48;;;;;;;0.60;0.40;;;19.30;90.70;;;;;;5030078;28;20436;-74
2022/07/15 04:08:14;;;;;;;0.40;0.30;;;19.30;91.90;;;;;;5028800;28;20379;-74
2022/07/15 04:10:40;;;;;;;0.70;0.70;;;19.50;93.80;;;;;;5029751;28;20383;-74
2022/07/15 04:13:05;;;;;;;0.40;0.20;;;19.40;94.90;;;;;;5028808;28;20473;-74
2022/07/15 04:15:31;;;;;;;0.40;0.30;;;19.30;94.40;;;;;;5029805;28;20399;-74
2022/07/15 04:17:58;;;;;;;1.10;0.50;;;19.40;95.20;;;;;;5028656;28;20379;-76
2022/07/15 04:20:25;;;;;;;0.40;0.30;;;19.30;96.00;;;;;;5029256;28;20391;-74
2022/07/15 04:22:51;;;;;;;0.40;0.20;;;19.30;96.90;;;;;;5029227;28;20555;-74
2022/07/15 04:25:20;;;;;;;0.70;0.50;;;19.20;97.90;;;;;;5010659;28;21228;-74
2022/07/15 04:27:46;;;;;;;0.40;0.30;;;19.10;99.20;;;;;;5029103;28;20498;-74
2022/07/15 04:30:12;;;;;;;0.40;0.20;;;19.10;99.70;;;;;;5028307;28;20525;-74
2022/07/15 04:32:38;;;;;;;0.80;0.70;;;18.90;99.90;;;;;;5028924;28;20589;-76
2022/07/15 04:35:05;;;;;;;0.40;0.20;;;19.00;98.60;;;;;;5028510;28;20525;-76
2022/07/15 04:37:31;;;;;;;0.40;0.30;;;19.00;99.90;;;;;;5028888;28;20611;-75
2022/07/15 04:39:57;;;;;;;0.40;0.30;;;18.90;99.90;;;;;;5014263;28;20781;-75
2022/07/15 04:42:23;;;;;;;0.40;0.30;;;18.80;99.90;;;;;;5010668;28;20399;-74
2022/07/15 04:44:49;;;;;;;0.40;0.30;;;18.90;99.90;;;;;;5029003;28;20449;-75
2022/07/15 04:47:15;;;;;;;0.40;0.30;;;18.90;98.80;;;;;;5028047;28;20387;-75
2022/07/15 04:52:25;;;;;;;0.50;0.40;;;18.80;97.20;;;;;;5016732;28;20376;-75
2022/07/15 04:54:54;;;;;;;0.60;0.50;;;18.80;96.90;;;;;;5028931;28;20380;-75
2022/07/15 04:57:20;;;;;;;0.40;0.30;;;19.00;96.50;;;;;;5026000;28;20421;-76
2022/07/15 04:59:46;;;;;;;0.40;0.30;;;19.00;96.80;;;;;;5013215;28;20391;-77
2022/07/15 05:02:12;;;;;;;0.40;0.30;;;18.90;99.90;;;;;;5008295;28;20389;-77
2022/07/15 05:04:41;;;;;;;0.50;0.40;;;18.90;99.90;;;;;;5001438;28;20752;-76
2022/07/15 05:07:08;;;;;;;0.50;0.40;;;18.80;99.10;;;;;;5013046;28;20455;-76
2022/07/15 05:09:33;;;;;;;0.50;0.50;;;19.00;97.90;;;;;;5018557;28;20752;-75
2022/07/15 05:12:00;;;;;;;0.40;0.30;;;19.00;97.50;;;;;;5020485;28;20391;-76
2022/07/15 05:14:25;;;;;;;0.40;0.30;;;19.00;99.40;;;;;;5028384;28;20453;-75
2022/07/15 05:16:51;;;;;;;0.40;0.30;;;19.00;98.30;;;;;;5028318;28;20379;-76
2022/07/15 05:19:17;;;;;;;1.00;1.00;;;19.20;98.30;;;;;;5020252;28;20381;-75
2022/07/15 05:21:43;;;;;;;1.70;0.80;;;19.10;98.50;;;;;;5020388;28;20417;-76
2022/07/15 05:24:08;;;;;;;1.20;1.10;;;19.20;99.00;;;;;;5026907;28;20390;-75
2022/07/15 05:26:34;;;;;;;0.40;0.33;;;19.30;98.80;;;;;;5025840;28;20532;-76
2022/07/15 05:29:00;;;;;;;0.40;0.30;;;19.00;99.90;;;;;;5007848;28;20400;-76
2022/07/15 05:31:27;;;;;;;0.40;0.30;;;19.00;99.90;;;;;;5007775;28;20380;-76
2022/07/15 05:33:54;;;;;;;0.40;0.20;;;19.10;98.70;;;;;;5007977;28;20516;-76
2022/07/15 05:36:20;;;;;;;0.50;0.45;;;18.90;99.70;;;;;;5006860;28;21017;-76
2022/07/15 05:38:46;;;;;;;0.40;0.30;;;19.00;99.90;;;;;;5018341;28;20397;-77
2022/07/15 05:41:12;;;;;;;0.40;0.20;;;19.00;99.40;;;;;;5022496;28;20387;-77
2022/07/15 05:43:38;;;;;;;0.40;0.40;;;19.10;98.80;;;;;;5027620;28;20391;-77
2022/07/15 05:46:05;;;;;;;0.40;0.30;;;19.20;97.80;;;;;;5026612;28;20453;-76
2022/07/15 05:48:31;;;;;;;0.40;0.20;;;19.40;97.70;;;;;;5027312;28;20382;-77
2022/07/15 05:50:57;;;;;;;0.40;0.20;;;19.40;97.60;;;;;;5008934;28;20778;-77
2022/07/15 05:53:23;;;;;;;0.40;0.20;;;19.40;97.20;;;;;;5027430;28;20443;-76
2022/07/15 05:55:49;;;;;;;0.40;0.30;;;19.40;97.30;;;;;;5027111;28;20461;-77
2022/07/15 05:58:14;;;;;;;0.55;0.40;;;19.40;97.00;;;;;;5026291;28;20403;-76
2022/07/15 06:00:40;;;;;;;0.40;0.30;;;19.50;98.70;;;;;;5027516;28;20414;-78
2022/07/15 06:03:06;;;;;;;0.40;0.33;;;19.60;99.70;;;;;;5026759;28;20864;-78
2022/07/15 06:05:32;;;;;;;0.50;0.50;;;19.70;97.90;;;;;;5027483;28;20414;-76
2022/07/15 06:07:58;;;;;;;0.40;0.30;;;19.80;96.40;;;;;;5027841;28;20398;-77
2022/07/15 06:10:24;;;;;;;0.40;0.30;;;19.80;95.60;;;;;;5026524;28;20375;-76
2022/07/15 06:12:49;;;;;;;0.40;0.30;;;19.70;96.20;;;;;;5027178;28;20386;-76
2022/07/15 06:15:15;;;;;;;0.55;0.52;;;19.70;99.90;;;;;;5026990;28;20379;-77
2022/07/15 06:17:41;;;;;;;0.50;0.50;;;19.70;96.20;;;;;;5026918;28;20779;-76
2022/07/15 06:20:07;;;;;;;0.40;0.20;;;19.80;95.80;;;;;;5026061;28;20526;-76
2022/07/15 06:22:33;;;;;;;0.40;0.30;;;19.80;95.60;;;;;;5018998;28;20409;-76
2022/07/15 06:24:59;;;;;;;0.80;0.80;;;19.90;94.80;;;;;;5013764;28;20668;-77
2022/07/15 06:27:25;;;;;;;0.40;0.40;;;20.00;94.00;;;;;;5010567;28;20428;-76
2022/07/15 06:29:51;;;;;;;0.40;0.20;;;20.10;95.10;;;;;;5016700;28;20432;-74
2022/07/15 06:32:18;;;;;;;0.60;0.60;;;20.20;93.10;;;;;;5021067;28;20852;-76
2022/07/15 06:34:44;;;;;;;0.40;0.30;;;20.30;93.30;;;;;;5010523;28;20380;-76
2022/07/15 06:37:10;;;;;;;0.40;0.20;;;20.30;93.00;;;;;;5016498;28;21739;-74
2022/07/15 06:39:36;;;;;;;0.80;0.80;;;20.30;92.60;;;;;;5015727;28;20424;-76
2022/07/15 06:42:02;;;;;;;0.40;0.20;;;20.40;93.10;;;;;;5017323;28;20490;-75
2022/07/15 06:44:29;;;;;;;0.40;0.30;;;20.40;93.90;;;;;;5016103;28;20384;-77
2022/07/15 06:46:55;;;;;;;0.40;0.30;;;20.50;93.30;;;;;;5022902;28;20784;-76
2022/07/15 06:49:21;;;;;;;0.40;0.20;;;20.50;93.10;;;;;;5026226;28;20422;-76
2022/07/15 06:51:47;;;;;;;0.40;0.30;;;20.50;92.90;;;;;;5009560;28;20490;-76
2022/07/15 06:54:13;;;;;;;0.40;0.20;;;20.50;93.30;;;;;;5029597;28;20397;-77
2022/07/15 06:56:39;;;;;;;0.40;0.30;;;20.50;92.50;;;;;;5022550;28;20563;-77
2022/07/15 06:59:05;;;;;;;0.40;0.40;;;20.60;92.00;;;;;;5008131;28;20422;-77
2022/07/15 07:01:30;;;;;;;0.40;0.20;;;20.70;92.10;;;;;;5027793;28;20771;-76
2022/07/15 07:03:56;;;;;;;0.40;0.30;;;20.70;91.40;;;;;;5034599;28;20406;-77
2022/07/15 07:06:22;;;;;;;0.40;0.30;;;20.80;91.30;;;;;;5029697;28;21237;-76
2022/07/15 07:08:49;;;;;;;0.57;0.57;;;20.80;91.10;;;;;;5030856;28;20429;-77
2022/07/15 07:11:16;;;;;;;0.40;0.20;;;20.80;90.90;;;;;;5026541;28;20400;-72
2022/07/15 07:13:42;;;;;;;0.40;0.20;;;20.70;91.40;;;;;;5014647;28;20428;-73
2022/07/15 07:16:08;;;;;;;0.40;0.30;;;20.80;91.00;;;;;;5013611;28;20443;-77
2022/07/15 07:18:34;;;;;;;0.40;0.30;;;20.90;90.40;;;;;;5043008;28;20389;-77
2022/07/15 07:21:01;;;;;;;0.40;0.40;;;21.00;90.60;;;;;;5028102;28;20379;-76
2022/07/15 07:23:30;;;;;;;0.43;0.32;;;21.00;90.20;;;;;;5016118;28;21406;-73
2022/07/15 07:25:57;;;;;;;0.40;0.20;;;21.00;90.40;;;;;;5010366;28;20433;-69
2022/07/15 07:28:22;;;;;;;0.68;0.68;;;21.00;90.20;;;;;;5022429;28;20414;-72
2022/07/15 07:30:50;;;;;;;0.40;0.30;;;21.10;90.10;;;;;;5030076;28;20419;-74
2022/07/15 07:33:16;;;;;;;0.40;0.20;;;21.20;90.00;;;;;;5011457;28;20391;-73
2022/07/15 07:35:43;;;;;;;0.40;0.30;;;21.20;90.20;;;;;;5026894;28;20399;-72
2022/07/15 07:38:10;;;;;;;0.40;0.30;;;21.30;90.00;;;;;;5011064;28;20475;-77
2022/07/15 07:40:35;;;;;;;0.40;0.30;;;21.40;89.80;;;;;;5020605;28;20454;-76
2022/07/15 07:43:01;;;;;;;0.40;0.20;;;21.30;89.10;;;;;;5010125;28;20389;-77
2022/07/15 07:45:30;;;;;;;0.80;0.60;;;21.40;89.90;;;;;;5020883;28;20406;-76
2022/07/15 07:47:56;;;;;;;0.40;0.20;;;21.40;89.10;;;;;;5029511;28;20398;-71
2022/07/15 07:50:22;;;;;;;0.40;0.20;;;21.30;89.70;;;;;;5028980;28;20391;-72
2022/07/15 07:52:48;;;;;;;0.40;0.20;;;21.50;88.30;;;;;;5024713;28;20424;-77
2022/07/15 07:55:14;;;;;;;0.40;0.20;;;21.50;89.00;;;;;;5025583;28;20426;-72
2022/07/15 07:57:50;;;;;;;0.40;0.40;;;21.40;89.00;;;;;;5014613;28;20417;-72
2022/07/15 08:00:17;;;;;;;0.40;0.30;;;21.40;87.20;;;;;;5017123;28;20389;-75
2022/07/15 08:02:44;;;;;;;0.40;0.30;;;21.50;86.00;;;;;;5027135;28;20470;-75
2022/07/15 08:05:10;;;;;;;0.40;0.20;;;21.60;87.80;;;;;;5029278;28;20418;-74
2022/07/15 08:07:36;;;;;;;0.40;0.30;;;21.60;88.00;;;;;;5029489;28;20383;-75
2022/07/15 08:10:04;;;;;;;0.40;0.30;;;21.60;86.90;;;;;;5014914;28;20409;-72
2022/07/15 08:12:30;;;;;;;0.40;0.20;;;21.70;86.20;;;;;;5010272;28;20387;-76
2022/07/15 08:14:56;;;;;;;0.40;0.30;;;21.70;85.90;;;;;;5028898;28;20413;-76
2022/07/15 08:17:22;;;;;;;0.40;0.20;;;21.70;85.30;;;;;;5003776;28;20397;-75
2022/07/15 08:19:49;;;;;;;0.40;0.30;;;21.80;84.20;;;;;;5018642;28;20409;-75
2022/07/15 08:22:15;;;;;;;0.40;0.30;;;21.80;85.60;;;;;;5023067;28;21045;-72
2022/07/15 08:24:41;;;;;;;0.50;0.40;;;21.80;84.00;;;;;;5028664;28;20438;-76
2022/07/15 08:27:08;;;;;;;0.70;0.60;;;21.70;84.60;;;;;;5027802;28;20411;-76
2022/07/15 08:29:34;;;;;;;0.50;0.50;;;21.80;82.30;;;;;;5027808;28;20410;-77
2022/07/15 08:32:01;;;;;;;0.40;0.20;;;21.80;82.50;;;;;;5021126;28;20436;-76
2022/07/15 08:34:26;;;;;;;0.90;0.70;;;22.00;81.60;;;;;;5012947;28;20396;-77
2022/07/15 08:36:52;;;;;;;0.40;0.30;;;22.10;81.90;;;;;;5028149;28;20441;-70
2022/07/15 08:39:18;;;;;;;0.40;0.20;;;22.10;81.70;;;;;;5027521;28;20398;-76
2022/07/15 08:41:44;;;;;;;0.40;0.30;;;22.20;81.40;;;;;;5010520;28;20402;-76
2022/07/15 08:44:10;;;;;;;0.40;0.20;;;22.20;80.40;;;;;;5027537;28;20390;-76
2022/07/15 08:46:38;;;;;;;0.40;0.20;;;22.30;80.20;;;;;;5027748;28;20415;-75
2022/07/15 08:49:08;;;;;;;0.40;0.20;;;22.20;80.30;;;;;;5028249;28;20383;-77
2022/07/15 08:51:39;;;;;;;0.40;0.30;;;22.30;79.10;;;;;;5027543;28;20383;-72
2022/07/15 08:54:06;;;;;;;0.40;0.20;;;22.30;79.00;;;;;;5023235;28;20883;-75
2022/07/15 08:56:35;;;;;;;0.40;0.30;;;22.50;79.10;;;;;;5027845;28;20480;-72
2022/07/15 08:59:02;;;;;;;0.40;0.20;;;22.30;78.90;;;;;;5016998;28;20404;-77
2022/07/15 09:01:29;;;;;;;0.40;0.20;;;22.40;79.30;;;;;;5008143;28;21306;-70
2022/07/15 09:03:55;;;;;;;0.40;0.30;;;22.30;78.50;;;;;;5016254;28;20459;-73
2022/07/15 09:06:38;;;;;;;0.40;0.30;;;22.40;78.90;;;;;;5015047;28;20644;-72
2022/07/15 09:09:30;;;;;;;0.40;0.30;;;22.50;78.40;;;;;;5014700;28;20406;-77
2022/07/15 09:11:57;;;;;;;0.40;0.30;;;22.40;77.90;;;;;;5019023;28;20411;-69
2022/07/15 09:14:28;;;;;;;1.10;0.70;;;22.50;78.00;;;;;;5018865;28;20406;-72
2022/07/15 09:17:16;;;;;;;0.40;0.20;;;22.50;77.10;;;;;;5025094;28;20883;-70
2022/07/15 09:19:58;;;;;;;0.40;0.30;;;22.80;78.70;;;;;;5001636;28;20413;-72
2022/07/15 09:22:26;;;;;;;0.40;0.20;;;22.90;77.60;;;;;;5009091;28;20392;-71
2022/07/15 09:25:21;;;;;;;0.40;0.20;;;22.90;77.20;;;;;;5021450;28;20912;-71
2022/07/15 09:27:47;;;;;;;0.40;0.30;;;22.90;77.30;;;;;;5000180;28;20429;-70
2022/07/15 09:36:02;;;;;;;0.40;0.30;;;23.00;78.20;;;;;;5017185;28;20402;-72
2022/07/15 09:38:42;;;;;;;0.40;0.20;;;23.20;77.90;;;;;;5018481;28;20395;-73
2022/07/15 09:41:10;;;;;;;0.40;0.30;;;23.20;76.90;;;;;;5024740;28;20402;-74
2022/07/15 09:43:51;;;;;;;0.40;0.20;;;23.10;77.40;;;;;;5007524;28;20860;-74
2022/07/15 09:46:18;;;;;;;0.40;0.20;;;23.30;76.30;;;;;;5024241;28;20615;-75
2022/07/15 09:48:47;;;;;;;0.40;0.20;;;23.30;75.70;;;;;;4997344;28;20412;-74
2022/07/15 09:51:12;;;;;;;0.50;0.40;;;23.40;78.30;;;;;;5011763;28;20456;-70
2022/07/15 09:53:40;;;;;;;0.40;0.30;;;23.60;75.80;;;;;;5027310;28;20383;-74
2022/07/15 09:56:09;;;;;;;0.40;0.30;;;23.70;74.70;;;;;;5014784;28;20407;-75
2022/07/15 09:58:38;;;;;;;0.40;0.20;;;23.70;73.90;;;;;;5018387;28;20425;-73
2022/07/15 10:01:08;;;;;;;0.40;0.28;;;23.70;72.70;;;;;;5023429;28;21603;-74
2022/07/15 10:03:35;;;;;;;0.40;0.30;;;23.60;72.60;;;;;;5015218;28;20443;-73
2022/07/15 10:06:02;;;;;;;0.40;0.20;;;23.50;72.20;;;;;;5012653;28;20484;-71
2022/07/15 10:08:31;;;;;;;0.40;0.30;;;23.70;71.90;;;;;;5024089;28;20398;-69
2022/07/15 10:10:57;;;;;;;0.70;0.60;;;23.60;72.20;;;;;;5026621;28;20410;-74
2022/07/15 10:13:41;;;;;;;0.40;0.30;;;23.80;71.30;;;;;;5020934;28;20466;-72
2022/07/15 10:16:23;;;;;;;0.40;0.30;;;23.90;71.80;;;;;;5019229;28;20395;-73
2022/07/15 10:19:12;;;;;;;0.40;0.30;;;23.90;71.50;;;;;;5025974;28;20407;-69
2022/07/15 10:21:54;;;;;;;0.40;0.30;;;23.90;71.20;;;;;;5026405;28;20493;-71
2022/07/15 10:25:02;;;;;;;0.40;0.30;;;24.00;70.70;;;;;;5026100;28;20383;-75
2022/07/15 10:27:54;;;;;;;0.40;0.20;;;24.20;70.40;;;;;;4926240;29;20486;-74
2022/07/15 10:30:21;;;;;;;0.40;0.20;;;24.30;69.30;;;;;;4984970;28;20427;-72
2022/07/15 10:33:15;;;;;;;0.40;0.30;;;24.20;70.20;;;;;;5009329;28;20488;-68
2022/07/15 10:35:45;;;;;;;0.40;0.20;;;24.40;69.50;;;;;;5014464;28;20395;-74
2022/07/15 10:38:21;;;;;;;0.40;0.30;;;24.50;69.80;;;;;;5030932;28;20391;-73
2022/07/15 10:41:03;;;;;;;0.40;0.30;;;24.40;68.60;;;;;;5035202;28;20409;-75
2022/07/15 10:43:47;;;;;;;0.40;0.30;;;24.60;69.10;;;;;;5021276;28;20849;-75
2022/07/15 10:46:16;;;;;;;2.10;0.80;;;24.80;67.70;;;;;;5028512;28;20418;-71
2022/07/15 10:48:46;;;;;;;0.50;0.40;;;24.80;67.20;;;;;;5024150;28;20748;-71
2022/07/15 10:51:13;;;;;;;0.40;0.30;;;25.10;65.50;;;;;;5021770;28;20399;-71
2022/07/15 10:53:46;;;;;;;0.40;0.30;;;25.20;65.70;;;;;;5034780;28;20453;-71
2022/07/15 10:56:34;;;;;;;0.40;0.20;;;25.00;66.00;;;;;;5018082;28;20493;-69
2022/07/15 10:59:15;;;;;;;0.70;0.50;;;25.10;65.10;;;;;;5029795;28;20423;-70
2022/07/15 11:01:46;;;;;;;0.40;0.30;;;25.00;63.80;;;;;;5030443;28;20391;-71
2022/07/15 11:04:21;;;;;;;0.40;0.30;;;25.00;64.60;;;;;;5012501;28;20443;-71
2022/07/15 11:07:01;;;;;;;0.40;0.20;;;25.10;63.80;;;;;;5010280;28;20754;-69
2022/07/15 11:09:48;;;;;;;0.40;0.30;;;25.10;63.40;;;;;;5009555;28;20493;-70
2022/07/15 11:12:16;;;;;;;0.40;0.30;;;25.10;63.40;;;;;;5015589;28;20498;-71
2022/07/15 11:15:01;;;;;;;0.40;0.20;;;25.20;64.30;;;;;;5017796;28;20507;-75
2022/07/15 11:17:29;;;;;;;1.20;0.80;;;25.40;63.50;;;;;;5027223;28;20416;-74
2022/07/15 11:20:26;;;;;;;0.40;0.30;;;25.40;62.50;;;;;;5033377;28;20402;-76
2022/07/15 11:22:54;;;;;;;0.50;0.40;;;25.70;64.60;;;;;;5010911;28;20415;-74
2022/07/15 11:25:29;;;;;;;0.40;0.20;;;26.00;62.30;;;;;;5023865;28;20413;-76
2022/07/15 11:28:02;;;;;;;0.40;0.30;;;26.60;60.40;;;;;;5014734;28;20417;-75
2022/07/15 11:30:38;;;;;;;1.20;1.10;;;26.50;58.50;;;;;;5015587;28;20438;-75
2022/07/15 11:33:08;;;;;;;0.40;0.30;;;26.80;59.60;;;;;;5025169;28;20412;-75
2022/07/15 11:35:47;;;;;;;0.40;0.30;;;27.30;57.60;;;;;;5024182;28;21089;-74
2022/07/15 11:38:13;;;;;;;0.50;0.50;;;27.70;58.40;;;;;;5024942;28;20410;-74
2022/07/15 11:46:15;;;;;;;0.40;0.20;;;28.10;55.60;;;;;;5015606;28;21311;-74
2022/07/15 11:48:41;;;;;;;0.40;0.20;;;29.00;51.50;;;;;;5019316;28;20403;-75
2022/07/15 11:51:09;;;;;;;0.40;0.20;;;29.20;50.10;;;;;;5023662;28;20398;-77
2022/07/15 11:53:47;;;;;;;0.40;0.20;;;29.20;49.50;;;;;;5020851;28;20399;-75
2022/07/15 11:56:14;;;;;;;0.40;0.20;;;29.00;51.50;;;;;;5013349;28;20471;-75
2022/07/15 11:58:42;;;;;;;0.40;0.20;;;29.10;48.70;;;;;;5018291;28;20435;-75
2022/07/15 12:01:13;;;;;;;0.40;0.20;;;29.80;48.60;;;;;;5017647;28;20905;-74
2022/07/15 12:03:41;;;;;;;0.40;0.20;;;30.20;50.20;;;;;;5026762;28;20405;-76
2022/07/15 12:06:11;;;;;;;0.40;0.20;;;30.00;46.20;;;;;;5039773;28;20394;-75
2022/07/15 12:08:47;;;;;;;0.40;0.20;;;29.50;47.10;;;;;;5042313;28;20554;-74
2022/07/15 12:11:15;;;;;;;0.40;0.20;;;30.30;46.20;;;;;;5004866;28;20749;-71
2022/07/15 12:13:48;;;;;;;0.40;0.20;;;30.00;45.00;;;;;;5023318;28;20478;-72
2022/07/15 12:16:17;;;;;;;0.40;0.20;;;28.60;45.20;;;;;;5024611;28;20410;-72
2022/07/15 12:18:43;;;;;;;0.40;0.28;;;29.00;46.60;;;;;;5015462;28;20398;-74
2022/07/15 12:21:09;;;;;;;0.40;0.20;;;29.10;44.90;;;;;;5026183;28;21026;-74
2022/07/15 12:23:35;;;;;;;0.40;0.20;;;29.90;45.20;;;;;;5027801;28;20566;-72
2022/07/15 12:26:06;;;;;;;0.40;0.20;;;29.50;46.90;;;;;;5014789;28;20428;-72
2022/07/15 12:28:33;;;;;;;0.40;0.20;;;30.60;48.10;;;;;;5030761;28;20413;-72
2022/07/15 12:30:59;;;;;;;0.90;0.40;;;30.90;43.50;;;;;;5031226;28;20389;-71
2022/07/15 12:33:26;;;;;;;0.40;0.20;;;31.00;42.90;;;;;;5015285;28;20445;-70
2022/07/15 12:36:13;;;;;;;0.40;0.20;;;30.80;43.60;;;;;;5017140;28;20671;-70
2022/07/15 12:38:38;;;;;;;0.40;0.20;;;30.70;41.80;;;;;;5017261;28;21090;-72
2022/07/15 12:41:06;;;;;;;0.40;0.20;;;29.00;42.80;;;;;;5016359;28;20407;-69
2022/07/15 12:43:53;;;;;;;0.40;0.20;;;29.90;44.10;;;;;;5000098;28;20396;-74
2022/07/15 12:46:19;;;;;;;0.40;0.20;;;30.30;43.20;;;;;;5015847;28;20416;-71
2022/07/15 12:48:49;;;;;;;0.40;0.20;;;29.20;43.60;;;;;;5019900;28;20415;-72
2022/07/15 12:51:17;;;;;;;0.40;0.20;;;29.00;47.40;;;;;;5006759;28;20391;-72
2022/07/15 12:53:43;;;;;;;0.40;0.25;;;30.00;46.70;;;;;;5017935;28;20407;-73
2022/07/15 12:56:09;;;;;;;0.40;0.20;;;29.90;45.30;;;;;;5017643;28;20899;-73
2022/07/15 12:58:35;;;;;;;0.40;0.20;;;30.10;42.90;;;;;;5016097;28;20420;-68
2022/07/15 13:01:11;;;;;;;0.40;0.20;;;30.00;43.20;;;;;;5010963;28;20395;-69
2022/07/15 13:03:38;;;;;;;0.50;0.40;;;29.60;43.80;;;;;;5018829;28;20473;-74
2022/07/15 13:06:04;;;;;;;0.40;0.30;;;28.70;44.10;;;;;;5019732;28;20476;-71
2022/07/15 13:08:33;;;;;;;0.40;0.20;;;28.10;44.30;;;;;;5016062;28;20405;-71
2022/07/15 13:11:01;;;;;;;0.40;0.20;;;28.00;45.70;;;;;;5016409;28;20393;-76